createdAt,value
2022-10-13T00:01:42.885Z,94577.19
2022-10-13T00:04:10.659Z,94573.41
2022-10-13T00:06:56.721Z,94568.78
2022-10-13T00:09:44.746Z,94575.31
2022-10-13T00:12:35.693Z,94570.97
2022-10-13T00:15:25.964Z,94575.31
2022-10-13T00:17:53.693Z,94568.25
2022-10-13T00:20:21.294Z,94573.69
2022-10-13T00:22:48.909Z,94560.91
2022-10-13T00:25:16.751Z,94560.09
2022-10-13T00:27:44.389Z,94559.28
2022-10-13T00:30:12.633Z,94556.00
2022-10-13T00:32:41.715Z,94556.56
2022-10-13T00:35:09.650Z,94550.31
2022-10-13T00:37:37.321Z,94549.50
2022-10-13T00:40:05.742Z,94554.91
2022-10-13T00:42:33.372Z,94558.47
2022-10-13T00:45:07.033Z,94562.25
2022-10-13T00:47:37.342Z,94563.91
2022-10-13T00:50:08.209Z,94565.78
2022-10-13T00:52:36.197Z,94573.94
2022-10-13T00:55:04.122Z,94562.25
2022-10-13T00:57:31.780Z,94567.69
2022-10-13T00:59:59.383Z,94561.44
2022-10-13T01:02:28.028Z,94568.78
2022-10-13T01:04:57.893Z,94568.78
2022-10-13T01:07:26.952Z,94567.94
2022-10-13T01:09:54.622Z,94568.78
2022-10-13T01:12:28.506Z,94574.47
2022-10-13T01:14:58.494Z,94569.03
2022-10-13T01:17:29.949Z,94567.16
2022-10-13T01:20:20.946Z,94575.28
2022-10-13T01:22:58.735Z,94566.31
2022-10-13T01:25:40.277Z,94568.19
2022-10-13T01:28:20.665Z,94576.34
2022-10-13T01:30:50.836Z,94567.41
2022-10-13T01:33:22.442Z,94563.84
2022-10-13T01:35:58.004Z,94564.69
2022-10-13T01:38:28.141Z,94564.69
2022-10-13T01:41:01.009Z,94561.13
2022-10-13T01:43:29.925Z,94565.47
2022-10-13T01:46:01.024Z,94559.25
2022-10-13T01:48:28.954Z,94558.69
2022-10-13T01:50:56.928Z,94556.78
2022-10-13T01:53:24.560Z,94556.78
2022-10-13T01:55:53.051Z,94560.34
2022-10-13T01:58:20.642Z,94562.22
2022-10-13T02:00:55.732Z,94556.78
2022-10-13T02:03:27.813Z,94558.69
2022-10-13T02:05:58.776Z,94557.88
2022-10-13T02:08:28.614Z,94558.69
2022-10-13T02:10:59.889Z,94560.59
2022-10-13T02:13:28.779Z,94547.84
2022-10-13T02:16:16.690Z,94550.56
2022-10-13T02:19:06.419Z,94547.00
2022-10-13T02:21:54.380Z,94544.28
2022-10-13T02:24:42.556Z,94548.09
2022-10-13T02:27:10.290Z,94544.56
2022-10-13T02:29:50.157Z,94548.09
2022-10-13T02:32:18.001Z,94546.22
2022-10-13T02:34:47.253Z,94543.75
2022-10-13T02:37:14.927Z,94538.31
2022-10-13T02:39:42.878Z,94538.31
2022-10-13T02:42:10.547Z,94536.44
2022-10-13T02:44:39.334Z,94535.59
2022-10-13T02:47:06.981Z,94540.22
2022-10-13T02:49:34.629Z,94532.09
2022-10-13T02:52:03.622Z,94534.81
2022-10-13T02:54:31.257Z,94533.97
2022-10-13T02:56:58.967Z,94536.69
2022-10-13T02:59:26.728Z,94524.19
2022-10-13T03:01:54.360Z,94518.75
2022-10-13T03:04:22.067Z,94525.00
2022-10-13T03:06:49.699Z,94521.47
2022-10-13T03:09:18.785Z,94525.81
2022-10-13T03:11:46.397Z,94523.34
2022-10-13T03:14:14.021Z,94526.06
2022-10-13T03:16:41.693Z,94525.28
2022-10-13T03:19:09.674Z,94533.41
2022-10-13T03:21:38.223Z,94528.00
2022-10-13T03:24:06.466Z,94537.75
2022-10-13T03:26:35.898Z,94535.31
2022-10-13T03:29:03.673Z,94530.69
2022-10-13T03:31:31.835Z,94534.50
2022-10-13T03:33:59.528Z,94540.72
2022-10-13T03:36:27.267Z,94539.09
2022-10-13T03:38:54.875Z,94539.94
2022-10-13T03:41:22.618Z,94543.44
2022-10-13T03:43:51.678Z,94547.53
2022-10-13T03:46:19.498Z,94543.72
2022-10-13T03:48:47.819Z,94542.09
2022-10-13T03:51:16.586Z,94543.72
2022-10-13T03:53:44.315Z,94545.59
2022-10-13T03:56:12.141Z,94554.59
2022-10-13T03:58:39.779Z,94552.13
2022-10-13T04:01:08.832Z,94548.59
2022-10-13T04:03:36.577Z,94544.81
2022-10-13T04:06:05.015Z,94545.06
2022-10-13T04:08:33.982Z,94548.59
2022-10-13T04:11:01.975Z,94551.31
2022-10-13T04:13:29.625Z,94551.31
2022-10-13T04:15:57.273Z,94543.19
2022-10-13T04:18:26.455Z,94545.06
2022-10-13T04:20:54.048Z,94543.44
2022-10-13T04:23:21.688Z,94544.22
2022-10-13T04:25:49.397Z,94546.94
2022-10-13T04:28:17.102Z,94541.78
2022-10-13T04:30:49.144Z,94543.44
2022-10-13T04:33:17.102Z,94544.50
2022-10-13T04:35:46.142Z,94545.59
2022-10-13T04:38:13.844Z,94543.44
2022-10-13T04:40:41.678Z,94545.06
2022-10-13T04:43:09.261Z,94543.44
2022-10-13T04:45:36.975Z,94543.19
2022-10-13T04:48:04.854Z,94541.25
2022-10-13T04:50:32.650Z,94539.63
2022-10-13T04:53:01.713Z,94532.31
2022-10-13T04:55:29.332Z,94539.38
2022-10-13T04:57:57.031Z,94533.94
2022-10-13T05:00:24.665Z,94539.94
2022-10-13T05:02:52.292Z,94532.88
2022-10-13T05:05:19.975Z,94532.88
2022-10-13T05:07:47.557Z,94536.66
2022-10-13T05:10:16.630Z,94533.13
2022-10-13T05:12:44.290Z,94535.03
2022-10-13T05:15:12.087Z,94528.78
2022-10-13T05:17:39.691Z,94525.22
2022-10-13T05:20:08.333Z,94529.84
2022-10-13T05:22:35.968Z,94522.50
2022-10-13T05:25:03.578Z,94527.13
2022-10-13T05:27:32.627Z,94522.50
2022-10-13T05:30:00.240Z,94526.31
2022-10-13T05:32:27.819Z,94535.28
2022-10-13T05:34:55.423Z,94529.84
2022-10-13T05:37:23.368Z,94527.13
2022-10-13T05:39:50.979Z,94523.88
2022-10-13T05:42:18.966Z,94522.78
2022-10-13T05:44:48.262Z,94524.66
2022-10-13T05:47:15.850Z,94528.22
2022-10-13T05:49:43.466Z,94530.09
2022-10-13T05:52:11.547Z,94521.16
2022-10-13T05:54:39.982Z,94523.59
2022-10-13T05:57:08.746Z,94526.31
2022-10-13T05:59:39.485Z,94525.75
2022-10-13T06:02:09.233Z,94530.94
2022-10-13T06:04:38.699Z,94522.78
2022-10-13T06:07:06.348Z,94532.81
2022-10-13T06:09:35.699Z,94526.31
2022-10-13T06:12:22.296Z,94524.66
2022-10-13T06:14:50.211Z,94524.66
2022-10-13T06:17:19.265Z,94525.50
2022-10-13T06:19:46.875Z,94523.88
2022-10-13T06:22:14.594Z,94525.75
2022-10-13T06:24:42.205Z,94523.03
2022-10-13T06:27:09.882Z,94529.31
2022-10-13T06:29:37.502Z,94526.84
2022-10-13T06:32:05.893Z,94528.47
2022-10-13T06:34:35.205Z,94523.03
2022-10-13T06:37:02.804Z,94529.56
2022-10-13T06:39:30.526Z,94533.91
2022-10-13T06:41:58.121Z,94523.03
2022-10-13T06:44:25.716Z,94521.41
2022-10-13T06:46:53.331Z,94530.09
2022-10-13T06:49:21.034Z,94520.31
2022-10-13T06:51:50.059Z,94523.88
2022-10-13T06:54:17.894Z,94519.53
2022-10-13T06:56:45.530Z,94522.25
2022-10-13T06:59:13.204Z,94522.50
2022-10-13T07:01:41.810Z,94520.59
2022-10-13T07:04:09.641Z,94521.41
2022-10-13T07:06:37.281Z,94521.41
2022-10-13T07:09:06.664Z,94524.97
2022-10-13T07:11:34.429Z,94524.41
2022-10-13T07:16:34.874Z,94525.19
2022-10-13T07:19:02.582Z,94525.19
2022-10-13T07:21:30.286Z,94526.03
2022-10-13T07:23:58.043Z,94518.13
2022-10-13T07:26:27.058Z,94514.34
2022-10-13T07:28:54.728Z,94520.59
2022-10-13T07:31:22.478Z,94512.47
2022-10-13T07:33:50.905Z,94507.28
2022-10-13T07:36:18.887Z,94508.91
2022-10-13T07:38:46.520Z,94503.50
2022-10-13T07:41:14.146Z,94512.72
2022-10-13T07:43:43.142Z,94506.19
2022-10-13T07:46:11.494Z,94511.63
2022-10-13T07:48:39.090Z,94507.28
2022-10-13T07:51:07.425Z,94501.84
2022-10-13T07:53:35.367Z,94508.91
2022-10-13T07:56:03.099Z,94503.78
2022-10-13T07:58:30.762Z,94511.09
2022-10-13T08:00:59.898Z,94515.44
2022-10-13T08:03:27.755Z,94518.13
2022-10-13T08:05:55.593Z,94518.13
2022-10-13T08:08:23.214Z,94526.28
2022-10-13T08:10:50.900Z,94517.34
2022-10-13T08:13:18.562Z,94522.78
2022-10-13T08:15:46.528Z,94516.50
2022-10-13T08:18:15.630Z,94518.13
2022-10-13T08:20:43.835Z,94513.78
2022-10-13T08:23:11.807Z,94516.50
2022-10-13T08:25:39.862Z,94511.91
2022-10-13T08:28:07.621Z,94508.38
2022-10-13T08:30:35.382Z,94515.44
2022-10-13T08:33:03.022Z,94508.38
2022-10-13T08:35:34.978Z,94508.38
2022-10-13T08:38:02.743Z,94512.72
2022-10-13T08:40:30.333Z,94505.66
2022-10-13T08:43:00.495Z,94508.13
2022-10-13T08:45:45.907Z,94504.56
2022-10-13T08:48:15.857Z,94501.06
2022-10-13T08:50:46.669Z,94498.59
2022-10-13T08:53:15.938Z,94506.47
2022-10-13T08:55:44.879Z,94500.22
2022-10-13T08:58:13.910Z,94496.44
2022-10-13T09:00:42.461Z,94500.22
2022-10-13T09:03:21.076Z,94495.63
2022-10-13T09:05:57.267Z,94497.50
2022-10-13T09:08:24.933Z,94507.28
2022-10-13T09:10:53.143Z,94500.22
2022-10-13T09:13:20.984Z,94494.78
2022-10-13T09:15:50.341Z,94497.50
2022-10-13T09:18:17.986Z,94493.97
2022-10-13T09:20:45.603Z,94498.34
2022-10-13T09:23:19.892Z,94482.31
2022-10-13T09:25:49.238Z,94489.38
2022-10-13T09:28:19.422Z,94491.00
2022-10-13T09:30:47.944Z,94487.50
2022-10-13T09:33:21.260Z,94479.34
2022-10-13T09:35:49.621Z,94480.16
2022-10-13T09:38:19.880Z,94482.84
2022-10-13T09:40:58.094Z,94481.78
2022-10-13T09:43:30.558Z,94492.63
2022-10-13T09:45:58.402Z,94482.59
2022-10-13T09:48:27.091Z,94483.41
2022-10-13T09:50:55.747Z,94485.31
2022-10-13T09:53:27.280Z,94485.03
2022-10-13T09:56:09.022Z,94482.59
2022-10-13T09:58:37.459Z,94485.31
2022-10-13T10:01:05.193Z,94478.81
2022-10-13T10:03:33.587Z,94484.25
2022-10-13T10:06:02.070Z,94476.09
2022-10-13T10:08:57.943Z,94475.28
2022-10-13T10:11:25.352Z,94476.09
2022-10-13T10:13:53.899Z,94478.81
2022-10-13T10:16:30.122Z,94475.81
2022-10-13T10:19:00.415Z,94474.19
2022-10-13T10:21:32.447Z,94480.44
2022-10-13T10:24:03.688Z,94486.41
2022-10-13T10:26:39.327Z,94475.56
2022-10-13T10:29:25.713Z,94473.66
2022-10-13T10:31:59.115Z,94474.47
2022-10-13T10:34:33.855Z,94469.06
2022-10-13T10:37:11.883Z,94463.63
2022-10-13T10:39:44.103Z,94459.81
2022-10-13T10:42:17.865Z,94453.59
2022-10-13T10:47:22.498Z,94451.44
2022-10-13T10:49:51.138Z,94448.72
2022-10-13T10:52:20.862Z,94445.16
2022-10-13T10:54:51.055Z,94447.63
2022-10-13T10:57:21.162Z,94447.63
2022-10-13T10:59:54.544Z,94443.84
2022-10-13T11:02:45.114Z,94445.47
2022-10-13T11:05:12.899Z,94442.75
2022-10-13T11:07:58.783Z,94436.50
2022-10-13T11:10:28.092Z,94440.03
2022-10-13T11:13:25.928Z,94425.38
2022-10-13T11:15:53.826Z,94424.56
2022-10-13T11:19:10.201Z,94422.91
2022-10-13T11:22:24.302Z,94423.75
2022-10-13T11:24:53.741Z,94417.50
2022-10-13T11:27:38.765Z,94423.75
2022-10-13T11:30:07.642Z,94415.84
2022-10-13T11:32:55.804Z,94407.72
2022-10-13T11:35:25.935Z,94411.25
2022-10-13T11:38:07.934Z,94404.19
2022-10-13T11:40:36.633Z,94406.91
2022-10-13T11:43:17.999Z,94395.22
2022-10-13T11:45:53.456Z,94393.34
2022-10-13T11:48:48.469Z,94384.38
2022-10-13T11:51:27.160Z,94387.91
2022-10-13T11:53:56.434Z,94385.19
2022-10-13T11:56:24.913Z,94378.13
2022-10-13T11:58:53.946Z,94381.66
2022-10-13T12:01:21.605Z,94371.88
2022-10-13T12:03:49.378Z,94370.78
2022-10-13T12:06:32.432Z,94366.19
2022-10-13T12:09:04.487Z,94355.59
2022-10-13T12:11:33.381Z,94355.59
2022-10-13T12:14:02.575Z,94363.75
2022-10-13T12:16:30.289Z,94356.44
2022-10-13T12:19:09.247Z,94358.31
2022-10-13T12:21:49.340Z,94357.50
2022-10-13T12:24:16.988Z,94347.75
2022-10-13T12:26:44.690Z,94352.88
2022-10-13T12:29:14.691Z,94352.09
2022-10-13T12:31:43.861Z,94338.75
2022-10-13T12:34:19.858Z,94336.06
2022-10-13T12:36:48.939Z,94338.75
2022-10-13T12:39:16.863Z,94347.75
2022-10-13T12:41:45.210Z,94343.38
2022-10-13T12:44:15.788Z,94342.31
2022-10-13T12:46:44.462Z,94339.59
2022-10-13T12:49:16.195Z,94337.94
2022-10-13T12:51:44.600Z,94323.31
2022-10-13T12:54:22.190Z,94333.09
2022-10-13T12:56:53.764Z,94317.06
2022-10-13T12:59:26.560Z,94314.88
2022-10-13T13:01:56.345Z,94321.66
2022-10-13T13:04:32.744Z,94318.94
2022-10-13T13:07:00.795Z,94320.84
2022-10-13T13:09:29.908Z,94314.34
2022-10-13T13:12:27.400Z,94315.16
2022-10-13T13:14:56.691Z,94314.59
2022-10-13T13:17:45.812Z,94315.41
2022-10-13T13:20:22.341Z,94315.41
2022-10-13T13:22:50.901Z,94318.94
2022-10-13T13:25:18.533Z,94317.06
2022-10-13T13:27:46.158Z,94314.34
2022-10-13T13:30:16.685Z,94318.94
2022-10-13T13:32:44.342Z,94313.50
2022-10-13T13:35:12.025Z,94320.84
2022-10-13T13:37:40.585Z,94312.72
2022-10-13T13:40:09.018Z,94308.09
2022-10-13T13:42:36.628Z,94313.50
2022-10-13T13:45:04.400Z,94304.81
2022-10-13T13:47:33.449Z,94311.06
2022-10-13T13:50:01.109Z,94309.16
2022-10-13T13:52:28.797Z,94308.38
2022-10-13T13:54:57.027Z,94302.09
2022-10-13T13:57:24.673Z,94295.59
2022-10-13T13:59:52.298Z,94303.75
2022-10-13T14:02:21.052Z,94297.50
2022-10-13T14:04:50.051Z,94291.25
2022-10-13T14:07:18.061Z,94293.97
2022-10-13T14:09:46.010Z,94294.78
2022-10-13T14:12:13.683Z,94288.53
2022-10-13T14:14:41.273Z,94300.22
2022-10-13T14:17:08.909Z,94298.31
2022-10-13T14:19:36.490Z,94295.59
2022-10-13T14:22:09.356Z,94296.69
2022-10-13T14:24:37.226Z,94298.31
2022-10-13T14:27:04.952Z,94297.50
2022-10-13T14:29:32.548Z,94290.44
2022-10-13T14:32:00.155Z,94288.53
2022-10-13T14:34:27.774Z,94279.59
2022-10-13T14:36:55.374Z,94288.53
2022-10-13T14:39:24.435Z,94284.75
2022-10-13T14:41:52.225Z,94279.59
2022-10-13T14:44:19.969Z,94277.69
2022-10-13T14:46:47.555Z,94274.97
2022-10-13T14:49:15.279Z,94279.59
2022-10-13T14:51:42.914Z,94276.88
2022-10-13T14:54:10.759Z,94278.75
2022-10-13T14:56:39.741Z,94281.47
2022-10-13T14:59:07.717Z,94267.91
2022-10-13T15:01:35.395Z,94269.53
2022-10-13T15:04:02.995Z,94276.06
2022-10-13T15:06:30.690Z,94281.47
2022-10-13T15:08:58.321Z,94275.25
2022-10-13T15:11:26.253Z,94270.63
2022-10-13T15:13:56.211Z,94272.53
2022-10-13T15:16:26.139Z,94279.84
2022-10-13T15:18:53.869Z,94279.84
2022-10-13T15:21:21.502Z,94280.69
2022-10-13T15:23:49.134Z,94275.50
2022-10-13T15:26:17.617Z,94271.72
2022-10-13T15:28:46.049Z,94276.34
2022-10-13T15:31:15.602Z,94263.03
2022-10-13T15:33:43.566Z,94272.00
2022-10-13T15:36:11.186Z,94270.09
2022-10-13T15:38:38.850Z,94264.94
2022-10-13T15:41:06.857Z,94265.75
2022-10-13T15:43:34.579Z,94264.94
2022-10-13T15:46:03.185Z,94268.44
2022-10-13T15:48:32.200Z,94270.38
2022-10-13T15:50:59.893Z,94267.66
2022-10-13T15:53:27.579Z,94264.09
2022-10-13T15:55:55.185Z,94262.22
2022-10-13T15:58:22.824Z,94263.03
2022-10-13T16:00:50.540Z,94261.41
2022-10-13T16:03:18.941Z,94256.81
2022-10-13T16:05:48.530Z,94264.09
2022-10-13T16:08:16.167Z,94254.34
2022-10-13T16:10:43.961Z,94255.44
2022-10-13T16:13:14.227Z,94260.03
2022-10-13T16:15:41.868Z,94263.56
2022-10-13T16:18:09.494Z,94263.56
2022-10-13T16:20:39.262Z,94268.16
2022-10-13T16:23:08.284Z,94268.16
2022-10-13T16:25:36.634Z,94263.56
2022-10-13T16:28:04.342Z,94270.88
2022-10-13T16:30:31.997Z,94267.38
2022-10-13T16:32:59.606Z,94272.78
2022-10-13T16:35:27.266Z,94274.69
2022-10-13T16:37:54.882Z,94277.41
2022-10-13T16:40:23.897Z,94279.31
2022-10-13T16:42:51.517Z,94276.59
2022-10-13T16:45:23.915Z,94279.31
2022-10-13T16:47:58.478Z,94275.75
2022-10-13T16:50:26.112Z,94281.19
2022-10-13T16:52:53.737Z,94281.19
2022-10-13T16:55:21.442Z,94277.69
2022-10-13T16:57:50.571Z,94280.41
2022-10-13T17:00:18.650Z,94274.97
2022-10-13T17:02:46.315Z,94280.41
2022-10-13T17:05:13.979Z,94274.13
2022-10-13T17:07:41.585Z,94279.56
2022-10-13T17:10:10.402Z,94276.03
2022-10-13T17:12:38.021Z,94276.03
2022-10-13T17:15:07.934Z,94276.03
2022-10-13T17:17:35.854Z,94280.63
2022-10-13T17:20:03.940Z,94281.44
2022-10-13T17:22:31.599Z,94289.59
2022-10-13T17:24:59.374Z,94282.28
2022-10-13T17:27:26.970Z,94286.31
2022-10-13T17:29:54.845Z,94282.50
2022-10-13T17:32:23.870Z,94271.66
2022-10-13T17:34:51.634Z,94272.47
2022-10-13T17:37:19.623Z,94275.19
2022-10-13T17:39:47.457Z,94283.34
2022-10-13T17:42:15.078Z,94287.94
2022-10-13T17:44:43.181Z,94286.03
2022-10-13T17:47:10.800Z,94281.69
2022-10-13T17:49:39.794Z,94277.06
2022-10-13T17:52:07.385Z,94275.19
2022-10-13T17:54:35.001Z,94276.28
2022-10-13T17:57:02.617Z,94275.44
2022-10-13T17:59:30.321Z,94275.44
2022-10-13T18:01:58.079Z,94273.56
2022-10-13T18:04:25.779Z,94272.72
2022-10-13T18:06:54.813Z,94273.81
2022-10-13T18:09:24.136Z,94273.81
2022-10-13T18:11:53.263Z,94270.31
2022-10-13T18:14:21.036Z,94272.19
2022-10-13T18:16:48.831Z,94268.38
2022-10-13T18:19:16.562Z,94271.09
2022-10-13T18:21:44.165Z,94259.44
2022-10-13T18:24:13.196Z,94261.06
2022-10-13T18:26:40.891Z,94264.59
2022-10-13T18:29:09.362Z,94257.53
2022-10-13T18:31:37.763Z,94261.88
2022-10-13T18:34:06.170Z,94261.06
2022-10-13T18:36:34.699Z,94254.03
2022-10-13T18:39:03.029Z,94250.22
2022-10-13T18:41:32.058Z,94243.97
2022-10-13T18:43:59.686Z,94250.22
2022-10-13T18:46:27.817Z,94249.41
2022-10-13T18:48:55.910Z,94251.03
2022-10-13T18:51:23.534Z,94253.75
2022-10-13T18:53:51.540Z,94252.94
2022-10-13T18:56:20.074Z,94249.13
2022-10-13T18:58:49.078Z,94251.03
2022-10-13T19:01:18.536Z,94239.38
2022-10-13T19:03:46.439Z,94249.13
2022-10-13T19:06:15.077Z,94248.31
2022-10-13T19:08:42.806Z,94247.50
2022-10-13T19:11:12.414Z,94241.25
2022-10-13T19:13:40.201Z,94243.72
2022-10-13T19:16:09.316Z,94237.47
2022-10-13T19:18:36.969Z,94235.56
2022-10-13T19:21:04.956Z,94240.16
2022-10-13T19:23:32.613Z,94251.03
2022-10-13T19:26:01.126Z,94247.22
2022-10-13T19:28:28.787Z,94241.00
2022-10-13T19:30:56.470Z,94251.03
2022-10-13T19:33:25.501Z,94251.84
2022-10-13T19:35:53.934Z,94249.13
2022-10-13T19:38:21.629Z,94247.50
2022-10-13T19:40:49.608Z,94249.13
2022-10-13T19:43:17.737Z,94242.88
2022-10-13T19:45:46.581Z,94246.44
2022-10-13T19:48:14.214Z,94238.28
2022-10-13T19:50:43.621Z,94240.16
2022-10-13T19:53:11.801Z,94240.16
2022-10-13T19:55:39.790Z,94242.88
2022-10-13T19:58:07.660Z,94238.28
2022-10-13T20:00:35.563Z,94244.50
2022-10-13T20:03:03.358Z,94234.75
2022-10-13T20:05:31.125Z,94232.03
2022-10-13T20:08:00.171Z,94232.84
2022-10-13T20:10:27.881Z,94234.75
2022-10-13T20:12:55.508Z,94230.16
2022-10-13T20:15:23.197Z,94232.03
2022-10-13T20:17:50.866Z,94232.03
2022-10-13T20:20:22.262Z,94230.94
2022-10-13T20:22:50.151Z,94229.31
2022-10-13T20:25:19.997Z,94229.31
2022-10-13T20:27:47.654Z,94229.31
2022-10-13T20:30:15.372Z,94237.47
2022-10-13T20:32:43.014Z,94234.75
2022-10-13T20:35:10.868Z,94234.75
2022-10-13T20:37:38.531Z,94236.66
2022-10-13T20:40:06.991Z,94240.16
2022-10-13T20:42:35.978Z,94232.03
2022-10-13T20:45:03.776Z,94231.22
2022-10-13T20:47:31.384Z,94235.81
2022-10-13T20:49:59.053Z,94242.88
2022-10-13T20:52:26.796Z,94235.81
2022-10-13T20:54:54.449Z,94239.38
2022-10-13T20:57:22.607Z,94235.81
2022-10-13T20:59:51.858Z,94241.25
2022-10-13T21:02:19.504Z,94247.50
2022-10-13T21:04:47.119Z,94247.50
2022-10-13T21:07:14.762Z,94246.69
2022-10-13T21:09:42.476Z,94258.38
2022-10-13T21:12:10.126Z,94271.94
2022-10-13T21:14:37.842Z,94285.50
2022-10-13T21:17:07.301Z,94301.78
2022-10-13T21:19:34.972Z,94302.59
2022-10-13T21:22:02.719Z,94307.22
2022-10-13T21:24:30.374Z,94318.88
2022-10-13T21:26:58.022Z,94319.94
2022-10-13T21:29:25.753Z,94318.06
2022-10-13T21:31:53.398Z,94324.56
2022-10-13T21:34:22.458Z,94324.28
2022-10-13T21:36:50.054Z,94323.50
2022-10-13T21:39:17.710Z,94318.31
2022-10-13T21:41:45.342Z,94313.72
2022-10-13T21:44:13.621Z,94312.09
2022-10-13T21:46:41.288Z,94321.84
2022-10-13T21:49:09.255Z,94318.31
2022-10-13T21:51:39.220Z,94316.44
2022-10-13T21:54:07.895Z,94312.88
2022-10-13T21:56:35.711Z,94315.59
2022-10-13T21:59:03.514Z,94316.44
2022-10-13T22:01:31.450Z,94315.59
2022-10-13T22:03:59.964Z,94309.38
2022-10-13T22:06:27.903Z,94323.75
2022-10-13T22:08:57.764Z,94319.41
2022-10-13T22:11:26.236Z,94319.41
2022-10-13T22:13:54.010Z,94314.81
2022-10-13T22:16:23.001Z,94311.00
2022-10-13T22:18:52.352Z,94309.38
2022-10-13T22:21:21.310Z,94292.28
2022-10-13T22:23:49.014Z,94293.91
2022-10-13T22:26:18.580Z,94293.91
2022-10-13T22:28:48.200Z,94287.66
2022-10-13T22:31:15.943Z,94281.41
2022-10-13T22:33:43.969Z,94273.28
2022-10-13T22:36:13.194Z,94276.00
2022-10-13T22:38:40.838Z,94281.41
2022-10-13T22:41:09.059Z,94274.09
2022-10-13T22:43:38.123Z,94271.38
2022-10-13T22:46:05.883Z,94265.13
2022-10-13T22:48:38.223Z,94270.56
2022-10-13T22:51:08.478Z,94261.63
2022-10-13T22:53:36.156Z,94264.34
2022-10-13T22:56:06.097Z,94261.63
2022-10-13T22:58:33.768Z,94265.13
2022-10-13T23:01:06.929Z,94261.88
2022-10-13T23:03:34.743Z,94251.84
2022-10-13T23:06:02.457Z,94260.00
2022-10-13T23:08:30.118Z,94265.13
2022-10-13T23:10:58.311Z,94265.41
2022-10-13T23:13:26.101Z,94263.50
2022-10-13T23:15:53.746Z,94268.13
2022-10-13T23:18:22.749Z,94260.00
2022-10-13T23:20:55.796Z,94257.28
2022-10-13T23:23:24.489Z,94258.06
2022-10-13T23:25:52.138Z,94251.84
2022-10-13T23:28:19.829Z,94256.19
2022-10-13T23:30:47.504Z,94254.56
2022-10-13T23:33:15.196Z,94251.84
2022-10-13T23:35:44.273Z,94245.59
2022-10-13T23:38:11.938Z,94252.66
2022-10-13T23:40:39.570Z,94253.75
2022-10-13T23:43:07.205Z,94251.84
2022-10-13T23:45:34.901Z,94248.31
2022-10-13T23:48:02.549Z,94251.03
2022-10-13T23:50:30.174Z,94243.72
2022-10-13T23:52:59.162Z,94244.75
2022-10-13T23:55:26.873Z,94245.59
2022-10-13T23:57:54.488Z,94247.47
